sensor_id;sensor_type;location;lat;lon;timestamp;P1;durP1;ratioP1;P2;durP2;ratioP2
36241;SDS011;22283;42.748;12.732;2023-03-01T00:04:50;2.23;;;1.43;;
36241;SDS011;22283;42.748;12.732;2023-03-01T00:09:50;3.10;;;1.47;;
36241;SDS011;22283;42.748;12.732;2023-03-01T00:14:51;4.77;;;2.40;;
36241;SDS011;22283;42.748;12.732;2023-03-01T00:19:51;3.63;;;2.03;;
36241;SDS011;22283;42.748;12.732;2023-03-01T00:24:52;3.17;;;2.00;;
36241;SDS011;22283;42.748;12.732;2023-03-01T00:29:53;3.23;;;2.07;;
36241;SDS011;22283;42.748;12.732;2023-03-01T00:34:53;5.00;;;2.37;;
36241;SDS011;22283;42.748;12.732;2023-03-01T00:44:56;3.20;;;1.80;;
36241;SDS011;22283;42.748;12.732;2023-03-01T00:49:56;4.83;;;3.13;;
36241;SDS011;22283;42.748;12.732;2023-03-01T00:54:57;4.80;;;3.10;;
36241;SDS011;22283;42.748;12.732;2023-03-01T00:59:58;3.40;;;2.17;;
36241;SDS011;22283;42.748;12.732;2023-03-01T01:04:59;3.72;;;2.08;;
36241;SDS011;22283;42.748;12.732;2023-03-01T01:10:00;5.13;;;2.27;;
36241;SDS011;22283;42.748;12.732;2023-03-01T01:15:01;5.13;;;2.13;;
36241;SDS011;22283;42.748;12.732;2023-03-01T01:20:01;3.93;;;2.33;;
36241;SDS011;22283;42.748;12.732;2023-03-01T01:25:03;3.58;;;2.17;;
36241;SDS011;22283;42.748;12.732;2023-03-01T01:30:04;2.80;;;1.80;;
36241;SDS011;22283;42.748;12.732;2023-03-01T01:35:05;3.55;;;2.25;;
36241;SDS011;22283;42.748;12.732;2023-03-01T01:40:06;2.93;;;1.70;;
36241;SDS011;22283;42.748;12.732;2023-03-01T01:50:30;3.88;;;1.85;;
36241;SDS011;22283;42.748;12.732;2023-03-01T01:55:39;2.55;;;1.73;;
36241;SDS011;22283;42.748;12.732;2023-03-01T02:00:43;2.55;;;1.48;;
36241;SDS011;22283;42.748;12.732;2023-03-01T02:06:00;2.10;;;1.30;;
36241;SDS011;22283;42.748;12.732;2023-03-01T02:11:06;2.50;;;1.35;;
36241;SDS011;22283;42.748;12.732;2023-03-01T02:16:14;2.95;;;1.50;;
36241;SDS011;22283;42.748;12.732;2023-03-01T02:31:26;1.90;;;1.00;;
36241;SDS011;22283;42.748;12.732;2023-03-01T02:41:48;2.83;;;1.48;;
36241;SDS011;22283;42.748;12.732;2023-03-01T02:46:52;2.17;;;1.30;;
36241;SDS011;22283;42.748;12.732;2023-03-01T02:57:16;2.42;;;1.55;;
36241;SDS011;22283;42.748;12.732;2023-03-01T03:07:40;2.72;;;1.45;;
36241;SDS011;22283;42.748;12.732;2023-03-01T03:12:42;2.67;;;1.55;;
36241;SDS011;22283;42.748;12.732;2023-03-01T03:17:43;3.13;;;1.23;;
36241;SDS011;22283;42.748;12.732;2023-03-01T03:22:48;2.80;;;1.47;;
36241;SDS011;22283;42.748;12.732;2023-03-01T03:27:50;2.65;;;1.60;;
36241;SDS011;22283;42.748;12.732;2023-03-01T03:32:57;2.15;;;1.52;;
36241;SDS011;22283;42.748;12.732;2023-03-01T03:38:00;4.65;;;1.58;;
36241;SDS011;22283;42.748;12.732;2023-03-01T03:43:07;2.28;;;1.40;;
36241;SDS011;22283;42.748;12.732;2023-03-01T03:48:09;4.32;;;1.52;;
36241;SDS011;22283;42.748;12.732;2023-03-01T03:53:11;3.10;;;1.80;;
36241;SDS011;22283;42.748;12.732;2023-03-01T03:58:12;3.13;;;1.48;;
36241;SDS011;22283;42.748;12.732;2023-03-01T04:03:13;5.00;;;1.13;;
36241;SDS011;22283;42.748;12.732;2023-03-01T04:08:16;2.00;;;1.23;;
36241;SDS011;22283;42.748;12.732;2023-03-01T04:13:20;4.00;;;1.20;;
36241;SDS011;22283;42.748;12.732;2023-03-01T04:18:22;2.50;;;1.10;;
36241;SDS011;22283;42.748;12.732;2023-03-01T04:23:25;1.60;;;0.80;;
36241;SDS011;22283;42.748;12.732;2023-03-01T04:28:29;0.63;;;0.50;;
36241;SDS011;22283;42.748;12.732;2023-03-01T04:33:34;1.52;;;0.60;;
36241;SDS011;22283;42.748;12.732;2023-03-01T04:38:35;0.73;;;0.60;;
36241;SDS011;22283;42.748;12.732;2023-03-01T04:43:37;1.35;;;0.60;;
36241;SDS011;22283;42.748;12.732;2023-03-01T04:48:38;2.10;;;0.87;;
36241;SDS011;22283;42.748;12.732;2023-03-01T04:53:41;3.58;;;0.90;;
36241;SDS011;22283;42.748;12.732;2023-03-01T04:58:43;1.33;;;0.63;;
36241;SDS011;22283;42.748;12.732;2023-03-01T05:03:45;1.50;;;0.80;;
36241;SDS011;22283;42.748;12.732;2023-03-01T05:08:51;3.10;;;0.88;;
36241;SDS011;22283;42.748;12.732;2023-03-01T05:13:52;2.23;;;0.57;;
36241;SDS011;22283;42.748;12.732;2023-03-01T05:18:55;1.85;;;0.60;;
36241;SDS011;22283;42.748;12.732;2023-03-01T05:23:57;1.20;;;0.65;;
36241;SDS011;22283;42.748;12.732;2023-03-01T05:28:57;1.83;;;0.60;;
36241;SDS011;22283;42.748;12.732;2023-03-01T05:33:58;2.17;;;0.70;;
36241;SDS011;22283;42.748;12.732;2023-03-01T05:38:59;1.17;;;0.57;;
36241;SDS011;22283;42.748;12.732;2023-03-01T05:44:00;0.87;;;0.50;;
36241;SDS011;22283;42.748;12.732;2023-03-01T05:49:01;0.52;;;0.50;;
36241;SDS011;22283;42.748;12.732;2023-03-01T05:54:02;1.20;;;0.70;;
36241;SDS011;22283;42.748;12.732;2023-03-01T05:59:06;1.98;;;0.77;;
36241;SDS011;22283;42.748;12.732;2023-03-01T06:04:06;1.30;;;0.70;;
36241;SDS011;22283;42.748;12.732;2023-03-01T06:09:07;0.87;;;0.67;;
36241;SDS011;22283;42.748;12.732;2023-03-01T06:14:09;1.25;;;0.60;;
36241;SDS011;22283;42.748;12.732;2023-03-01T06:19:10;3.28;;;1.00;;
36241;SDS011;22283;42.748;12.732;2023-03-01T06:24:11;2.20;;;0.93;;
36241;SDS011;22283;42.748;12.732;2023-03-01T06:29:11;4.90;;;1.07;;
36241;SDS011;22283;42.748;12.732;2023-03-01T06:34:12;4.03;;;1.33;;
36241;SDS011;22283;42.748;12.732;2023-03-01T06:39:13;2.28;;;1.00;;
36241;SDS011;22283;42.748;12.732;2023-03-01T06:44:14;2.73;;;0.93;;
36241;SDS011;22283;42.748;12.732;2023-03-01T06:49:15;2.73;;;0.90;;
36241;SDS011;22283;42.748;12.732;2023-03-01T06:54:16;1.70;;;0.90;;
36241;SDS011;22283;42.748;12.732;2023-03-01T06:59:18;1.30;;;0.88;;
36241;SDS011;22283;42.748;12.732;2023-03-01T07:04:18;2.53;;;1.23;;
36241;SDS011;22283;42.748;12.732;2023-03-01T07:09:19;2.33;;;1.17;;
36241;SDS011;22283;42.748;12.732;2023-03-01T07:14:22;2.03;;;1.00;;
36241;SDS011;22283;42.748;12.732;2023-03-01T07:19:24;2.60;;;1.75;;
36241;SDS011;22283;42.748;12.732;2023-03-01T07:24:25;2.50;;;0.93;;
36241;SDS011;22283;42.748;12.732;2023-03-01T07:29:25;2.53;;;1.03;;
36241;SDS011;22283;42.748;12.732;2023-03-01T07:34:26;7.53;;;4.33;;
36241;SDS011;22283;42.748;12.732;2023-03-01T07:39:26;2.60;;;1.00;;
36241;SDS011;22283;42.748;12.732;2023-03-01T07:44:27;11.20;;;5.17;;
36241;SDS011;22283;42.748;12.732;2023-03-01T07:49:28;4.68;;;1.83;;
36241;SDS011;22283;42.748;12.732;2023-03-01T07:54:29;2.70;;;1.70;;
36241;SDS011;22283;42.748;12.732;2023-03-01T07:59:29;5.37;;;2.80;;
36241;SDS011;22283;42.748;12.732;2023-03-01T08:04:30;3.87;;;2.17;;
36241;SDS011;22283;42.748;12.732;2023-03-01T08:09:31;20.52;;;5.97;;
36241;SDS011;22283;42.748;12.732;2023-03-01T08:14:35;1.23;;;0.65;;
36241;SDS011;22283;42.748;12.732;2023-03-01T08:19:36;1.80;;;0.63;;
36241;SDS011;22283;42.748;12.732;2023-03-01T08:24:37;1.67;;;0.73;;
36241;SDS011;22283;42.748;12.732;2023-03-01T08:29:37;2.97;;;1.50;;
36241;SDS011;22283;42.748;12.732;2023-03-01T08:34:38;3.90;;;1.47;;
36241;SDS011;22283;42.748;12.732;2023-03-01T08:39:38;3.00;;;1.70;;
36241;SDS011;22283;42.748;12.732;2023-03-01T08:44:39;2.57;;;1.53;;
36241;SDS011;22283;42.748;12.732;2023-03-01T08:49:40;1.30;;;0.80;;
36241;SDS011;22283;42.748;12.732;2023-03-01T08:54:40;1.53;;;0.83;;
36241;SDS011;22283;42.748;12.732;2023-03-01T08:59:41;6.40;;;3.93;;
36241;SDS011;22283;42.748;12.732;2023-03-01T09:04:42;2.70;;;1.47;;
36241;SDS011;22283;42.748;12.732;2023-03-01T09:09:43;6.00;;;2.38;;
36241;SDS011;22283;42.748;12.732;2023-03-01T09:14:44;2.50;;;1.37;;
36241;SDS011;22283;42.748;12.732;2023-03-01T09:19:44;3.00;;;1.73;;
36241;SDS011;22283;42.748;12.732;2023-03-01T09:24:45;4.33;;;2.43;;
36241;SDS011;22283;42.748;12.732;2023-03-01T09:29:46;1.13;;;0.70;;
36241;SDS011;22283;42.748;12.732;2023-03-01T09:34:46;2.33;;;1.30;;
36241;SDS011;22283;42.748;12.732;2023-03-01T09:40:05;2.25;;;1.25;;
36241;SDS011;22283;42.748;12.732;2023-03-01T09:45:21;4.15;;;2.40;;
36241;SDS011;22283;42.748;12.732;2023-03-01T09:50:36;4.28;;;1.10;;
36241;SDS011;22283;42.748;12.732;2023-03-01T09:55:45;1.20;;;0.77;;
36241;SDS011;22283;42.748;12.732;2023-03-01T10:00:52;1.83;;;0.90;;
36241;SDS011;22283;42.748;12.732;2023-03-01T10:06:08;1.70;;;0.80;;
36241;SDS011;22283;42.748;12.732;2023-03-01T10:22:21;1.77;;;1.10;;
36241;SDS011;22283;42.748;12.732;2023-03-01T10:27:37;1.70;;;1.10;;
36241;SDS011;22283;42.748;12.732;2023-03-01T10:32:51;2.83;;;1.30;;
36241;SDS011;22283;42.748;12.732;2023-03-01T10:43:11;4.65;;;2.38;;
36241;SDS011;22283;42.748;12.732;2023-03-01T10:48:17;2.85;;;2.05;;
36241;SDS011;22283;42.748;12.732;2023-03-01T10:53:38;2.92;;;1.80;;
36241;SDS011;22283;42.748;12.732;2023-03-01T10:58:59;2.63;;;1.52;;
36241;SDS011;22283;42.748;12.732;2023-03-01T11:14:17;2.15;;;1.20;;
36241;SDS011;22283;42.748;12.732;2023-03-01T11:24:29;4.30;;;1.80;;
36241;SDS011;22283;42.748;12.732;2023-03-01T11:29:45;2.35;;;1.60;;
36241;SDS011;22283;42.748;12.732;2023-03-01T11:34:53;2.90;;;1.60;;
36241;SDS011;22283;42.748;12.732;2023-03-01T11:39:59;2.97;;;2.05;;
36241;SDS011;22283;42.748;12.732;2023-03-01T11:45:13;4.22;;;2.20;;
36241;SDS011;22283;42.748;12.732;2023-03-01T11:50:16;2.33;;;1.30;;
36241;SDS011;22283;42.748;12.732;2023-03-01T11:55:30;3.70;;;2.40;;
36241;SDS011;22283;42.748;12.732;2023-03-01T12:00:48;3.20;;;2.08;;
36241;SDS011;22283;42.748;12.732;2023-03-01T12:17:00;3.20;;;2.00;;
36241;SDS011;22283;42.748;12.732;2023-03-01T12:43:43;4.50;;;2.80;;
36241;SDS011;22283;42.748;12.732;2023-03-01T12:54:19;2.70;;;1.85;;
36241;SDS011;22283;42.748;12.732;2023-03-01T13:05:01;2.47;;;1.60;;
36241;SDS011;22283;42.748;12.732;2023-03-01T13:15:28;3.10;;;1.80;;
36241;SDS011;22283;42.748;12.732;2023-03-01T13:31:09;4.22;;;3.38;;
36241;SDS011;22283;42.748;12.732;2023-03-01T13:36:45;3.45;;;2.40;;
36241;SDS011;22283;42.748;12.732;2023-03-01T13:46:44;6.35;;;4.70;;
36241;SDS011;22283;42.748;12.732;2023-03-01T13:51:51;5.35;;;3.60;;
36241;SDS011;22283;42.748;12.732;2023-03-01T13:56:52;3.40;;;2.30;;
36241;SDS011;22283;42.748;12.732;2023-03-01T14:22:55;3.30;;;2.40;;
36241;SDS011;22283;42.748;12.732;2023-03-01T14:28:00;4.38;;;2.28;;
36241;SDS011;22283;42.748;12.732;2023-03-01T14:33:05;4.75;;;3.25;;
36241;SDS011;22283;42.748;12.732;2023-03-01T14:38:31;2.60;;;1.77;;
36241;SDS011;22283;42.748;12.732;2023-03-01T14:43:35;3.85;;;2.08;;
36241;SDS011;22283;42.748;12.732;2023-03-01T14:48:39;2.75;;;2.15;;
36241;SDS011;22283;42.748;12.732;2023-03-01T14:53:40;4.00;;;2.93;;
36241;SDS011;22283;42.748;12.732;2023-03-01T14:58:42;4.90;;;3.28;;
36241;SDS011;22283;42.748;12.732;2023-03-01T15:03:44;7.13;;;4.03;;
36241;SDS011;22283;42.748;12.732;2023-03-01T15:08:50;3.60;;;2.63;;
36241;SDS011;22283;42.748;12.732;2023-03-01T15:13:53;5.10;;;3.72;;
36241;SDS011;22283;42.748;12.732;2023-03-01T15:19:04;4.25;;;3.47;;
36241;SDS011;22283;42.748;12.732;2023-03-01T15:29:20;3.92;;;3.20;;
36241;SDS011;22283;42.748;12.732;2023-03-01T15:39:30;12.07;;;7.33;;
36241;SDS011;22283;42.748;12.732;2023-03-01T15:44:38;8.15;;;5.38;;
36241;SDS011;22283;42.748;12.732;2023-03-01T15:49:42;5.05;;;4.35;;
36241;SDS011;22283;42.748;12.732;2023-03-01T15:54:47;8.98;;;4.18;;
36241;SDS011;22283;42.748;12.732;2023-03-01T15:59:48;6.85;;;4.80;;
36241;SDS011;22283;42.748;12.732;2023-03-01T16:04:49;34.70;;;24.13;;
36241;SDS011;22283;42.748;12.732;2023-03-01T16:09:50;11.27;;;7.50;;
36241;SDS011;22283;42.748;12.732;2023-03-01T16:14:51;6.37;;;3.47;;
36241;SDS011;22283;42.748;12.732;2023-03-01T16:24:53;17.10;;;9.85;;
36241;SDS011;22283;42.748;12.732;2023-03-01T16:29:54;23.73;;;14.20;;
36241;SDS011;22283;42.748;12.732;2023-03-01T16:34:55;6.60;;;4.00;;
36241;SDS011;22283;42.748;12.732;2023-03-01T16:39:57;4.97;;;3.90;;
36241;SDS011;22283;42.748;12.732;2023-03-01T16:44:58;7.23;;;4.40;;
36241;SDS011;22283;42.748;12.732;2023-03-01T16:49:58;7.63;;;5.83;;
36241;SDS011;22283;42.748;12.732;2023-03-01T16:54:59;7.13;;;5.60;;
36241;SDS011;22283;42.748;12.732;2023-03-01T17:00:00;24.63;;;15.10;;
36241;SDS011;22283;42.748;12.732;2023-03-01T17:10:09;6.18;;;4.95;;
36241;SDS011;22283;42.748;12.732;2023-03-01T17:15:10;15.00;;;10.32;;
36241;SDS011;22283;42.748;12.732;2023-03-01T17:20:12;15.37;;;8.47;;
36241;SDS011;22283;42.748;12.732;2023-03-01T17:25:13;11.97;;;8.70;;
36241;SDS011;22283;42.748;12.732;2023-03-01T17:30:15;13.30;;;8.88;;
36241;SDS011;22283;42.748;12.732;2023-03-01T17:35:16;18.20;;;11.27;;
36241;SDS011;22283;42.748;12.732;2023-03-01T17:40:17;16.43;;;9.00;;
36241;SDS011;22283;42.748;12.732;2023-03-01T17:45:18;9.10;;;6.63;;
36241;SDS011;22283;42.748;12.732;2023-03-01T17:50:18;18.50;;;11.07;;
36241;SDS011;22283;42.748;12.732;2023-03-01T17:55:19;6.63;;;5.50;;
36241;SDS011;22283;42.748;12.732;2023-03-01T18:00:20;11.40;;;6.30;;
36241;SDS011;22283;42.748;12.732;2023-03-01T18:05:21;7.13;;;6.17;;
36241;SDS011;22283;42.748;12.732;2023-03-01T18:10:22;7.47;;;5.97;;
36241;SDS011;22283;42.748;12.732;2023-03-01T18:15:22;8.43;;;6.47;;
36241;SDS011;22283;42.748;12.732;2023-03-01T18:20:23;11.93;;;7.57;;
36241;SDS011;22283;42.748;12.732;2023-03-01T18:25:24;10.03;;;7.10;;
36241;SDS011;22283;42.748;12.732;2023-03-01T18:30:24;22.33;;;13.53;;
36241;SDS011;22283;42.748;12.732;2023-03-01T18:35:25;38.67;;;23.90;;
36241;SDS011;22283;42.748;12.732;2023-03-01T18:40:27;15.57;;;9.80;;
36241;SDS011;22283;42.748;12.732;2023-03-01T18:45:29;12.80;;;9.38;;
36241;SDS011;22283;42.748;12.732;2023-03-01T18:55:34;12.77;;;10.55;;
36241;SDS011;22283;42.748;12.732;2023-03-01T19:00:36;16.50;;;10.57;;
36241;SDS011;22283;42.748;12.732;2023-03-01T19:05:39;11.80;;;9.77;;
36241;SDS011;22283;42.748;12.732;2023-03-01T19:10:40;15.38;;;11.68;;
36241;SDS011;22283;42.748;12.732;2023-03-01T19:15:47;18.58;;;11.10;;
36241;SDS011;22283;42.748;12.732;2023-03-01T19:20:48;13.95;;;10.60;;
36241;SDS011;22283;42.748;12.732;2023-03-01T19:25:57;12.32;;;7.47;;
36241;SDS011;22283;42.748;12.732;2023-03-01T19:31:08;11.55;;;7.32;;
36241;SDS011;22283;42.748;12.732;2023-03-01T19:36:16;9.48;;;7.35;;
36241;SDS011;22283;42.748;12.732;2023-03-01T19:41:19;13.18;;;8.45;;
36241;SDS011;22283;42.748;12.732;2023-03-01T19:46:22;16.33;;;9.73;;
36241;SDS011;22283;42.748;12.732;2023-03-01T19:51:23;15.65;;;9.82;;
36241;SDS011;22283;42.748;12.732;2023-03-01T19:56:25;10.32;;;7.88;;
36241;SDS011;22283;42.748;12.732;2023-03-01T20:01:26;10.83;;;6.83;;
36241;SDS011;22283;42.748;12.732;2023-03-01T20:06:31;17.48;;;11.07;;
36241;SDS011;22283;42.748;12.732;2023-03-01T20:11:32;34.57;;;22.73;;
36241;SDS011;22283;42.748;12.732;2023-03-01T20:16:33;18.23;;;11.60;;
36241;SDS011;22283;42.748;12.732;2023-03-01T20:21:34;19.33;;;12.67;;
36241;SDS011;22283;42.748;12.732;2023-03-01T20:26:35;21.90;;;15.73;;
36241;SDS011;22283;42.748;12.732;2023-03-01T20:31:35;15.43;;;11.27;;
36241;SDS011;22283;42.748;12.732;2023-03-01T20:36:37;21.58;;;15.10;;
36241;SDS011;22283;42.748;12.732;2023-03-01T20:41:40;17.90;;;12.57;;
36241;SDS011;22283;42.748;12.732;2023-03-01T20:46:40;19.23;;;13.33;;
36241;SDS011;22283;42.748;12.732;2023-03-01T20:51:41;25.07;;;17.17;;
36241;SDS011;22283;42.748;12.732;2023-03-01T20:56:43;29.30;;;18.85;;
36241;SDS011;22283;42.748;12.732;2023-03-01T21:01:44;23.97;;;15.70;;
36241;SDS011;22283;42.748;12.732;2023-03-01T21:06:44;24.53;;;18.47;;
36241;SDS011;22283;42.748;12.732;2023-03-01T21:11:47;20.80;;;13.37;;
36241;SDS011;22283;42.748;12.732;2023-03-01T21:16:49;15.55;;;11.63;;
36241;SDS011;22283;42.748;12.732;2023-03-01T21:21:49;16.13;;;10.27;;
36241;SDS011;22283;42.748;12.732;2023-03-01T21:26:50;15.43;;;11.30;;
36241;SDS011;22283;42.748;12.732;2023-03-01T21:31:51;13.47;;;10.43;;
36241;SDS011;22283;42.748;12.732;2023-03-01T21:36:52;17.48;;;11.20;;
36241;SDS011;22283;42.748;12.732;2023-03-01T21:41:56;13.80;;;10.30;;
36241;SDS011;22283;42.748;12.732;2023-03-01T21:46:59;14.70;;;8.50;;
36241;SDS011;22283;42.748;12.732;2023-03-01T21:51:59;11.87;;;8.60;;
36241;SDS011;22283;42.748;12.732;2023-03-01T21:57:00;14.60;;;8.73;;
36241;SDS011;22283;42.748;12.732;2023-03-01T22:02:01;13.50;;;10.50;;
36241;SDS011;22283;42.748;12.732;2023-03-01T22:07:02;14.00;;;9.37;;
36241;SDS011;22283;42.748;12.732;2023-03-01T22:12:03;15.87;;;10.70;;
36241;SDS011;22283;42.748;12.732;2023-03-01T22:17:04;15.75;;;11.65;;
36241;SDS011;22283;42.748;12.732;2023-03-01T22:22:05;21.27;;;11.95;;
36241;SDS011;22283;42.748;12.732;2023-03-01T22:27:05;19.07;;;12.33;;
36241;SDS011;22283;42.748;12.732;2023-03-01T22:32:06;19.97;;;12.27;;
36241;SDS011;22283;42.748;12.732;2023-03-01T22:37:07;21.33;;;12.30;;
36241;SDS011;22283;42.748;12.732;2023-03-01T22:42:07;14.20;;;9.93;;
36241;SDS011;22283;42.748;12.732;2023-03-01T22:47:08;13.55;;;9.75;;
36241;SDS011;22283;42.748;12.732;2023-03-01T22:52:09;15.20;;;9.37;;
36241;SDS011;22283;42.748;12.732;2023-03-01T22:57:10;12.77;;;9.23;;
36241;SDS011;22283;42.748;12.732;2023-03-01T23:02:11;12.90;;;8.27;;
36241;SDS011;22283;42.748;12.732;2023-03-01T23:07:11;12.17;;;8.33;;
36241;SDS011;22283;42.748;12.732;2023-03-01T23:12:12;13.27;;;9.30;;
36241;SDS011;22283;42.748;12.732;2023-03-01T23:17:12;15.10;;;10.07;;
36241;SDS011;22283;42.748;12.732;2023-03-01T23:22:13;13.83;;;8.87;;
36241;SDS011;22283;42.748;12.732;2023-03-01T23:27:14;15.63;;;9.73;;
36241;SDS011;22283;42.748;12.732;2023-03-01T23:32:18;13.23;;;9.65;;
36241;SDS011;22283;42.748;12.732;2023-03-01T23:37:18;13.43;;;9.70;;
36241;SDS011;22283;42.748;12.732;2023-03-01T23:42:19;14.40;;;9.30;;
36241;SDS011;22283;42.748;12.732;2023-03-01T23:47:20;17.40;;;10.40;;
36241;SDS011;22283;42.748;12.732;2023-03-01T23:52:20;13.13;;;9.73;;
36241;SDS011;22283;42.748;12.732;2023-03-01T23:57:21;12.40;;;9.33;;
